Time;durP1;ratioP1;P1;durP2;ratioP2;P2;SDS_P1;SDS_P2;PMS_P1;PMS_P2;Temp;Humidity;BMP_temperature;BMP_pressure;BME280_temperature;BME280_humidity;BME280_pressure;Samples;Min_cycle;Max_cycle;Signal;HPM_P1;HPM_P2
2022/04/13 00:00:56;;;;;;;22.90;19.90;;;;;;;5.45;48.47;98364.88;107891;1291;22264;-84
2022/04/13 00:03:23;;;;;;;23.50;21.10;;;;;;;5.43;48.75;98366.84;107867;1290;22384;-85
2022/04/13 00:05:51;;;;;;;22.30;20.10;;;;;;;5.41;48.81;98365.33;107887;1291;23022;-85
2022/04/13 00:08:19;;;;;;;24.20;20.80;;;;;;;5.38;48.88;98360.97;107859;1291;22492;-85
2022/04/13 00:10:47;;;;;;;22.80;20.60;;;;;;;5.36;48.78;98360.57;107628;1293;22438;-84
2022/04/13 00:13:15;;;;;;;24.20;21.70;;;;;;;5.33;48.64;98358.73;107895;1291;22420;-83
2022/04/13 00:15:43;;;;;;;23.90;21.40;;;;;;;5.32;48.77;98360.70;107900;1291;22399;-87
2022/04/13 00:18:11;;;;;;;23.50;21.10;;;;;;;5.31;49.18;98358.11;107567;1291;22392;-87
2022/04/13 00:20:39;;;;;;;24.40;21.90;;;;;;;5.29;49.13;98361.95;107943;1291;22443;-86
2022/04/13 00:23:07;;;;;;;24.30;21.80;;;;;;;5.28;49.40;98361.41;107896;1290;22442;-85
2022/04/13 00:25:38;;;;;;;24.40;21.80;;;;;;;5.28;49.20;98361.30;107885;1291;22387;-86
2022/04/13 00:28:09;;;;;;;23.50;21.20;;;;;;;5.27;49.29;98364.28;107603;1292;22979;-85
2022/04/13 00:30:37;;;;;;;22.70;20.30;;;;;;;5.25;49.22;98364.73;107711;1291;185389;-82
2022/04/13 00:33:07;;;;;;;26.70;21.60;;;;;;;5.23;49.28;98360.52;107891;1290;22254;-85
2022/04/13 00:35:35;;;;;;;22.00;19.80;;;;;;;5.22;49.50;98367.34;107660;1291;22369;-89
2022/04/13 00:38:04;;;;;;;22.70;20.40;;;;;;;5.21;49.54;98366.69;107653;1291;22487;-87
2022/04/13 00:40:31;;;;;;;22.60;20.40;;;;;;;5.21;49.46;98371.33;107883;1290;22362;-85
2022/04/13 00:42:59;;;;;;;23.10;20.80;;;;;;;5.19;49.66;98372.48;107887;1291;22540;-85
2022/04/13 00:45:28;;;;;;;23.40;21.10;;;;;;;5.17;49.64;98371.08;107890;1291;23255;-86
2022/04/13 00:47:58;;;;;;;24.20;21.60;;;;;;;5.15;49.70;98365.23;107611;1293;22355;-85
2022/04/13 00:50:26;;;;;;;28.20;22.20;;;;;;;5.12;49.77;98370.07;107853;1290;22377;-85
2022/04/13 00:52:58;;;;;;;25.00;21.30;;;;;;;5.09;49.69;98370.94;107901;1291;23067;-87
2022/04/13 00:55:28;;;;;;;26.60;23.80;;;;;;;5.06;49.94;98371.45;107606;1291;22432;-86
2022/04/13 00:57:58;;;;;;;26.00;23.30;;;;;;;5.01;49.68;98368.25;107888;1291;22293;-86
2022/04/13 01:00:26;;;;;;;28.60;24.40;;;;;;;4.97;49.86;98369.00;107882;1291;22303;-86
2022/04/13 01:02:54;;;;;;;25.40;22.80;;;;;;;4.93;49.86;98366.72;107889;1291;22513;-86
2022/04/13 01:05:23;;;;;;;25.10;22.70;;;;;;;4.89;49.86;98359.29;107905;1291;22371;-86
2022/04/13 01:07:53;;;;;;;26.10;23.50;;;;;;;4.85;50.28;98357.44;107889;1291;22493;-86
2022/04/13 01:10:22;;;;;;;26.50;23.80;;;;;;;4.82;50.14;98355.64;107861;1291;22585;-84
2022/04/13 01:12:49;;;;;;;24.90;22.40;;;;;;;4.79;50.38;98350.11;107865;1291;22274;-85
2022/04/13 01:15:18;;;;;;;24.00;21.70;;;;;;;4.75;50.37;98346.05;107891;1291;22468;-86
2022/04/13 01:17:48;;;;;;;26.40;23.60;;;;;;;4.71;50.71;98343.77;107585;1291;22496;-85
2022/04/13 01:20:17;;;;;;;26.00;23.40;;;;;;;4.69;50.64;98339.90;107576;1291;22265;-84
2022/04/13 01:22:47;;;;;;;26.60;22.50;;;;;;;4.66;50.89;98343.59;107670;1292;23099;-83
2022/04/13 01:25:15;;;;;;;25.10;22.60;;;;;;;4.64;50.94;98341.60;107897;1291;22328;-83
2022/04/13 01:27:42;;;;;;;24.30;22.00;;;;;;;4.62;50.96;98343.18;107670;1292;22461;-85
2022/04/13 01:30:11;;;;;;;24.50;22.00;;;;;;;4.61;51.02;98346.20;107875;1291;22382;-85
2022/04/13 01:32:39;;;;;;;24.70;22.10;;;;;;;4.59;51.12;98344.48;107908;1291;22530;-85
2022/04/13 01:35:07;;;;;;;24.60;22.10;;;;;;;4.58;51.35;98341.73;107887;1291;22735;-84
2022/04/13 01:37:35;;;;;;;24.40;22.10;;;;;;;4.56;51.57;98341.30;107875;1291;22227;-81
2022/04/13 01:40:04;;;;;;;23.40;21.10;;;;;;;4.54;51.68;98343.79;107558;1291;22283;-86
2022/04/13 01:42:42;;;;;;;25.60;23.00;;;;;;;4.52;51.69;98338.86;107880;1291;22469;-86
2022/04/13 01:45:10;;;;;;;24.30;21.90;;;;;;;4.50;51.41;98339.73;107886;1291;23121;-85
2022/04/13 01:47:38;;;;;;;25.30;22.70;;;;;;;4.49;51.49;98336.94;107875;1291;22410;-86
2022/04/13 01:50:07;;;;;;;24.80;22.40;;;;;;;4.48;51.52;98339.92;107883;1291;22432;-85
2022/04/13 01:52:35;;;;;;;23.10;20.70;;;;;;;4.46;51.80;98338.50;107889;1291;22878;-84
2022/04/13 01:55:03;;;;;;;25.20;21.90;;;;;;;4.45;51.62;98340.46;107583;1291;22503;-85
2022/04/13 01:57:31;;;;;;;23.10;20.90;;;;;;;4.43;51.67;98348.83;107842;1290;22574;-85
2022/04/13 01:59:59;;;;;;;23.30;20.90;;;;;;;4.42;51.78;98342.73;107861;1291;22801;-86
2022/04/13 02:02:27;;;;;;;23.60;21.30;;;;;;;4.40;51.99;98343.13;107881;1291;22391;-88
2022/04/13 02:04:55;;;;;;;23.60;21.40;;;;;;;4.38;51.95;98343.31;107454;1293;22394;-85
2022/04/13 02:07:23;;;;;;;23.60;21.30;;;;;;;4.37;51.99;98349.70;107841;1291;23316;-86
2022/04/13 02:09:51;;;;;;;24.30;21.80;;;;;;;4.36;52.20;98345.67;107815;1291;22281;-87
2022/04/13 02:12:19;;;;;;;21.70;19.70;;;;;;;4.33;52.14;98345.83;107837;1291;22353;-88
2022/04/13 02:14:47;;;;;;;22.70;20.50;;;;;;;4.32;52.26;98345.68;107842;1291;22256;-87
2022/04/13 02:17:16;;;;;;;23.20;20.90;;;;;;;4.30;52.22;98347.59;107538;1293;22797;-83
2022/04/13 02:19:44;;;;;;;23.00;20.80;;;;;;;4.29;52.34;98348.42;107836;1291;22295;-83
2022/04/13 02:22:12;;;;;;;24.30;21.60;;;;;;;4.28;52.50;98349.70;107821;1291;22418;-86
2022/04/13 02:25:01;;;;;;;22.00;19.60;;;;;;;4.27;52.40;98347.71;107846;1291;22361;-87
2022/04/13 02:27:29;;;;;;;21.90;19.70;;;;;;;4.26;52.31;98350.90;107841;1291;22374;-87
2022/04/13 02:29:57;;;;;;;21.10;19.00;;;;;;;4.26;52.44;98352.55;107838;1291;22434;-87
2022/04/13 02:32:26;;;;;;;21.10;19.00;;;;;;;4.25;52.44;98357.45;107854;1292;22377;-86
2022/04/13 02:34:54;;;;;;;22.60;20.40;;;;;;;4.25;52.53;98357.65;107851;1291;23099;-87
2022/04/13 02:37:22;;;;;;;21.40;19.30;;;;;;;4.26;52.64;98357.39;107656;1293;22375;-87
2022/04/13 02:39:49;;;;;;;22.30;19.90;;;;;;;4.25;52.63;98359.04;107843;1291;22327;-84
2022/04/13 02:42:17;;;;;;;22.70;19.20;;;;;;;4.25;52.70;98364.11;107860;1291;22320;-86
2022/04/13 02:44:45;;;;;;;21.20;19.20;;;;;;;4.24;52.71;98362.29;107834;1291;22374;-85
2022/04/13 02:47:13;;;;;;;21.60;19.40;;;;;;;4.24;52.60;98363.48;107449;1293;22300;-86
2022/04/13 02:49:42;;;;;;;20.70;18.50;;;;;;;4.24;52.65;98359.04;107841;1291;22302;-86
2022/04/13 02:52:10;;;;;;;22.20;20.00;;;;;;;4.24;52.85;98359.95;107874;1292;22373;-84
2022/04/13 02:54:38;;;;;;;20.80;18.70;;;;;;;4.24;52.72;98356.41;107876;1292;22284;-85
2022/04/13 02:57:06;;;;;;;21.60;18.30;;;;;;;4.24;52.80;98355.30;107866;1291;22940;-85
2022/04/13 02:59:34;;;;;;;19.10;16.60;;;;;;;4.26;52.86;98348.10;107847;1291;22260;-86
2022/04/13 03:02:04;;;;;;;18.20;16.20;;;;;;;4.27;52.68;98343.17;107868;1291;23184;-85
2022/04/13 03:04:32;;;;;;;19.70;17.60;;;;;;;4.28;52.87;98341.20;107836;1291;23008;-86
2022/04/13 03:07:00;;;;;;;21.20;16.50;;;;;;;4.29;52.80;98339.30;107599;1291;22333;-83
2022/04/13 03:09:27;;;;;;;17.90;16.10;;;;;;;4.30;52.86;98342.25;107975;1291;23058;-86
2022/04/13 03:11:55;;;;;;;19.90;16.20;;;;;;;4.32;52.92;98343.30;107965;1289;22352;-86
2022/04/13 03:14:23;;;;;;;19.30;16.70;;;;;;;4.34;52.90;98340.27;107975;1290;22393;-85
2022/04/13 03:16:51;;;;;;;18.10;16.40;;;;;;;4.36;52.75;98347.98;107898;1291;22320;-87
2022/04/13 03:19:19;;;;;;;17.70;15.90;;;;;;;4.37;52.75;98351.73;107925;1291;22418;-84
2022/04/13 03:21:51;;;;;;;19.50;17.10;;;;;;;4.37;52.80;98347.77;108301;1291;22336;-84
2022/04/13 03:24:21;;;;;;;18.00;16.10;;;;;;;4.38;52.89;98344.48;108289;1290;22323;-84
2022/04/13 03:26:49;;;;;;;17.50;15.70;;;;;;;4.37;52.84;98346.98;107995;1291;22326;-86
2022/04/13 03:29:18;;;;;;;17.20;15.40;;;;;;;4.39;53.00;98351.05;107776;1293;22895;-86
2022/04/13 03:35:32;;;;;;;16.90;15.10;;;;;;;4.38;52.68;98362.56;107916;1291;22454;-86
2022/04/13 03:38:00;;;;;;;18.30;16.40;;;;;;;4.36;52.76;98362.08;107871;1290;22260;-84
2022/04/13 03:40:27;;;;;;;19.50;17.40;;;;;;;4.34;52.72;98364.75;107656;1293;22547;-86
2022/04/13 03:42:55;;;;;;;19.50;17.60;;;;;;;4.30;52.77;98366.10;107865;1291;22371;-85
2022/04/13 03:45:24;;;;;;;18.60;16.70;;;;;;;4.27;52.86;98365.48;107449;1290;22475;-86
2022/04/13 03:47:51;;;;;;;18.30;16.20;;;;;;;4.26;52.94;98362.10;107856;1291;22321;-86
2022/04/13 03:50:19;;;;;;;19.30;16.50;;;;;;;4.28;52.97;98366.17;107655;1293;22258;-87
2022/04/13 03:52:47;;;;;;;21.00;17.30;;;;;;;4.29;53.01;98368.10;107854;1291;22527;-87
2022/04/13 03:55:16;;;;;;;18.20;16.10;;;;;;;4.30;53.04;98365.20;107843;1291;22476;-85
2022/04/13 03:57:43;;;;;;;21.10;16.70;;;;;;;4.31;52.96;98367.45;107557;1291;22270;-86
2022/04/13 04:00:12;;;;;;;18.00;16.20;;;;;;;4.31;52.95;98364.46;107840;1291;22295;-86
2022/04/13 04:02:40;;;;;;;19.50;15.60;;;;;;;4.34;53.17;98366.04;107842;1291;22259;-87
2022/04/13 04:05:08;;;;;;;18.20;16.40;;;;;;;4.36;53.13;98362.77;107839;1291;22390;-88
2022/04/13 04:07:37;;;;;;;18.30;16.40;;;;;;;4.40;53.09;98365.64;107810;1291;22310;-86
2022/04/13 04:10:06;;;;;;;20.30;15.90;;;;;;;4.43;53.14;98364.08;107838;1291;23047;-85
2022/04/13 04:12:41;;;;;;;18.90;16.60;;;;;;;4.45;53.19;98363.37;107853;1291;22382;-85
2022/04/13 04:15:10;;;;;;;18.40;15.60;;;;;;;4.46;53.23;98367.80;107823;1290;22392;-85
2022/04/13 04:17:38;;;;;;;20.60;17.60;;;;;;;4.46;53.34;98365.83;107826;1291;22472;-86
2022/04/13 04:20:07;;;;;;;18.60;16.80;;;;;;;4.47;53.25;98364.09;107813;1291;22371;-86
2022/04/13 04:22:38;;;;;;;19.60;17.60;;;;;;;4.47;53.25;98364.67;107542;1291;23156;-83
2022/04/13 04:25:08;;;;;;;19.60;17.50;;;;;;;4.47;53.37;98365.80;107817;1291;22465;-85
2022/04/13 04:27:36;;;;;;;19.10;17.10;;;;;;;4.46;53.34;98365.41;107828;1290;22268;-84
2022/04/13 04:30:04;;;;;;;20.40;18.20;;;;;;;4.46;53.52;98366.94;107810;1291;22390;-85
2022/04/13 04:32:32;;;;;;;19.70;17.70;;;;;;;4.45;53.54;98371.64;107550;1292;22294;-84
2022/04/13 04:35:00;;;;;;;19.50;17.60;;;;;;;4.44;53.56;98368.59;107817;1291;22506;-84
2022/04/13 04:37:28;;;;;;;20.30;18.20;;;;;;;4.43;53.48;98365.54;107667;1291;22421;-86
2022/04/13 04:39:55;;;;;;;21.70;19.60;;;;;;;4.44;53.85;98368.80;107801;1291;22271;-86
2022/04/13 04:42:24;;;;;;;20.60;18.50;;;;;;;4.45;53.56;98372.07;107830;1291;22844;-87
2022/04/13 04:44:58;;;;;;;20.00;17.80;;;;;;;4.49;53.85;98379.84;107810;1291;22259;-87
2022/04/13 04:47:26;;;;;;;19.20;17.20;;;;;;;4.52;53.79;98382.41;107839;1290;22264;-86
2022/04/13 04:49:54;;;;;;;20.40;17.10;;;;;;;4.57;53.72;98384.70;107814;1291;22270;-85
2022/04/13 04:52:22;;;;;;;19.90;15.90;;;;;;;4.61;53.65;98391.00;107811;1291;22270;-85
2022/04/13 04:54:49;;;;;;;20.10;16.20;;;;;;;4.65;53.70;98395.06;107823;1290;22431;-84
2022/04/13 04:57:17;;;;;;;19.10;17.10;;;;;;;4.70;53.77;98392.61;107824;1290;22262;-85
2022/04/13 04:59:45;;;;;;;19.60;17.60;;;;;;;4.75;53.80;98391.76;107822;1291;22240;-84
2022/04/13 05:02:13;;;;;;;19.20;17.10;;;;;;;4.80;53.83;98396.52;107821;1291;23196;-85
2022/04/13 05:04:41;;;;;;;18.60;16.60;;;;;;;4.84;53.75;98399.44;107672;1293;22451;-84
2022/04/13 05:07:08;;;;;;;18.40;16.60;;;;;;;4.88;53.82;98396.95;107803;1290;22373;-85
2022/04/13 05:09:36;;;;;;;19.90;17.60;;;;;;;4.92;53.71;98397.25;107810;1290;23673;-86
2022/04/13 05:12:05;;;;;;;19.50;16.90;;;;;;;4.93;53.72;98392.77;107579;1291;22284;-86
2022/04/13 05:14:32;;;;;;;21.30;19.10;;;;;;;4.98;53.63;98395.41;107827;1291;22388;-86
2022/04/13 05:17:01;;;;;;;22.50;18.20;;;;;;;5.04;53.84;98398.82;107821;1291;22523;-85
2022/04/13 05:19:35;;;;;;;19.00;17.10;;;;;;;5.09;53.80;98400.91;107822;1291;22247;-85
2022/04/13 05:22:03;;;;;;;20.90;18.00;;;;;;;5.13;53.74;98404.64;107834;1291;22255;-85
2022/04/13 05:24:31;;;;;;;26.50;19.50;;;;;;;5.18;53.70;98408.11;107846;1291;22283;-85
2022/04/13 05:26:59;;;;;;;23.80;21.30;;;;;;;5.20;53.51;98413.42;107841;1290;22283;-86
2022/04/13 05:29:27;;;;;;;22.10;19.20;;;;;;;5.20;53.73;98414.87;107833;1291;22241;-84
2022/04/13 05:31:55;;;;;;;24.40;21.80;;;;;;;5.22;53.89;98416.21;107685;1291;22278;-86
2022/04/13 05:34:23;;;;;;;24.80;21.90;;;;;;;5.23;54.04;98419.17;107839;1290;22422;-86
2022/04/13 05:36:50;;;;;;;24.90;22.20;;;;;;;5.26;53.76;98424.98;107834;1290;22375;-86
2022/04/13 05:39:18;;;;;;;23.60;21.10;;;;;;;5.29;54.08;98426.13;107807;1291;22311;-87
2022/04/13 05:41:46;;;;;;;24.30;20.60;;;;;;;5.33;53.95;98429.91;107813;1291;22847;-87
2022/04/13 05:44:14;;;;;;;23.20;20.80;;;;;;;5.36;53.92;98431.39;107801;1291;23124;-87
2022/04/13 05:46:43;;;;;;;23.50;20.80;;;;;;;5.40;53.81;98436.02;107787;1291;22376;-87
2022/04/13 05:49:11;;;;;;;24.40;21.80;;;;;;;5.45;54.00;98437.58;107796;1291;22667;-87
2022/04/13 05:51:38;;;;;;;24.20;21.80;;;;;;;5.50;54.02;98434.68;107937;1289;22383;-87
2022/04/13 05:54:06;;;;;;;23.00;20.50;;;;;;;5.55;54.00;98437.55;108193;1290;22374;-84
2022/04/13 05:56:34;;;;;;;24.70;21.00;;;;;;;5.57;54.02;98438.35;107889;1291;22303;-87
2022/04/13 05:59:02;;;;;;;23.90;21.40;;;;;;;5.62;54.10;98438.17;107788;1291;22472;-87
2022/04/13 06:01:30;;;;;;;25.50;22.80;;;;;;;5.65;54.12;98436.70;107806;1290;22383;-85
2022/04/13 06:03:58;;;;;;;24.70;22.20;;;;;;;5.68;54.33;98430.48;107819;1290;22932;-87
2022/04/13 06:06:28;;;;;;;24.50;22.00;;;;;;;5.71;54.22;98431.41;107799;1291;22350;-87
2022/04/13 06:08:56;;;;;;;27.80;22.70;;;;;;;5.75;54.17;98431.65;107814;1290;23227;-88
2022/04/13 06:11:25;;;;;;;26.20;21.50;;;;;;;5.79;54.12;98433.13;107786;1290;22291;-86
2022/04/13 06:13:53;;;;;;;25.00;22.50;;;;;;;5.86;54.40;98439.34;107783;1290;23038;-87
2022/04/13 06:16:21;;;;;;;23.30;20.80;;;;;;;5.93;53.93;98442.64;107819;1291;22405;-87
2022/04/13 06:18:49;;;;;;;21.30;19.10;;;;;;;6.00;54.30;98440.88;107820;1291;23042;-88
2022/04/13 06:21:16;;;;;;;22.40;20.10;;;;;;;6.07;54.14;98448.33;107808;1290;22423;-88
2022/04/13 06:23:45;;;;;;;22.50;20.30;;;;;;;6.15;54.17;98451.70;107835;1291;22418;-87
2022/04/13 06:26:13;;;;;;;22.50;20.30;;;;;;;6.24;54.24;98455.63;107813;1290;22313;-89
2022/04/13 06:28:41;;;;;;;23.10;20.70;;;;;;;6.32;53.98;98461.95;107661;1293;23019;-87
2022/04/13 06:31:08;;;;;;;20.20;18.20;;;;;;;6.42;53.82;98462.23;107654;1293;22392;-88
2022/04/13 06:33:36;;;;;;;21.80;19.70;;;;;;;6.51;54.24;98469.84;107799;1290;22333;-87
2022/04/13 06:36:08;;;;;;;21.90;19.70;;;;;;;6.62;53.90;98470.92;107803;1289;23240;-87
2022/04/13 06:38:40;;;;;;;21.60;19.30;;;;;;;6.73;53.92;98472.81;107810;1291;22502;-87
2022/04/13 06:41:08;;;;;;;20.70;18.10;;;;;;;6.85;53.97;98474.27;107818;1291;23060;-87
2022/04/13 06:43:38;;;;;;;20.40;18.20;;;;;;;6.96;53.88;98476.73;107817;1290;22331;-88
2022/04/13 06:46:06;;;;;;;21.30;19.00;;;;;;;7.02;53.26;98474.14;107809;1290;22482;-88
2022/04/13 06:48:34;;;;;;;19.80;17.30;;;;;;;7.06;53.64;98485.19;107815;1291;22288;-88
2022/04/13 06:51:03;;;;;;;19.00;17.10;;;;;;;7.15;53.14;98481.95;107827;1291;22260;-87
2022/04/13 06:53:31;;;;;;;18.40;16.50;;;;;;;7.26;53.15;98481.25;107805;1291;22495;-88
2022/04/13 06:55:59;;;;;;;21.80;16.60;;;;;;;7.35;52.98;98480.53;107839;1291;22325;-87
2022/04/13 06:58:27;;;;;;;16.70;14.90;;;;;;;7.43;52.70;98480.55;107833;1290;22280;-86
2022/04/13 07:00:57;;;;;;;16.70;14.90;;;;;;;7.54;52.78;98480.05;107800;1291;22384;-86
2022/04/13 07:03:25;;;;;;;20.40;18.50;;;;;;;7.67;52.77;98481.05;107833;1290;22304;-85
2022/04/13 07:05:54;;;;;;;16.60;14.60;;;;;;;7.78;52.18;98490.34;107865;1290;22368;-88
2022/04/13 07:08:47;;;;;;;17.80;16.10;;;;;;;7.90;52.35;98487.45;107841;1290;23178;-86
2022/04/13 07:11:15;;;;;;;15.30;13.80;;;;;;;8.04;51.99;98491.08;107811;1290;23248;-81
2022/04/13 07:13:43;;;;;;;15.80;14.20;;;;;;;8.11;51.73;98486.41;107417;1293;22268;-83
2022/04/13 07:16:10;;;;;;;16.20;13.70;;;;;;;8.19;51.37;98485.88;107554;1293;22451;-82
2022/04/13 07:18:38;;;;;;;15.20;11.80;;;;;;;8.27;51.06;98489.48;107762;1290;22434;-84
2022/04/13 07:21:06;;;;;;;14.60;13.00;;;;;;;8.37;50.78;98484.98;107981;1290;22810;-83
2022/04/13 07:23:34;;;;;;;13.50;12.00;;;;;;;8.46;50.46;98482.94;107969;1289;23029;-83
2022/04/13 07:26:02;;;;;;;16.10;14.50;;;;;;;8.56;50.54;98489.48;107981;1290;22367;-83
2022/04/13 07:28:30;;;;;;;14.50;12.50;;;;;;;8.65;49.92;98492.85;107985;1290;22285;-84
2022/04/13 07:30:59;;;;;;;14.70;12.90;;;;;;;8.73;50.33;98492.63;107918;1289;23247;-84
2022/04/13 07:33:27;;;;;;;14.10;12.70;;;;;;;8.85;50.50;98499.21;107812;1290;22281;-82
2022/04/13 07:35:55;;;;;;;12.80;11.60;;;;;;;8.99;49.98;98498.75;107814;1290;23164;-81
2022/04/13 07:38:22;;;;;;;14.90;13.40;;;;;;;9.10;49.90;98500.33;107814;1290;22470;-83
2022/04/13 07:40:50;;;;;;;13.70;12.40;;;;;;;9.22;49.82;98497.76;107812;1290;22331;-83
2022/04/13 07:43:19;;;;;;;13.30;11.90;;;;;;;9.30;49.18;98499.45;107789;1291;22454;-83
2022/04/13 07:45:47;;;;;;;14.90;11.80;;;;;;;9.36;49.10;98494.48;107801;1290;22272;-83
2022/04/13 07:48:15;;;;;;;16.60;12.40;;;;;;;9.44;49.09;98493.63;107821;1290;22272;-81
2022/04/13 07:50:44;;;;;;;13.40;11.90;;;;;;;9.55;48.75;98498.84;107827;1291;22289;-82
2022/04/13 07:53:12;;;;;;;16.40;12.30;;;;;;;9.63;48.55;98495.62;107818;1290;22418;-83
2022/04/13 07:55:40;;;;;;;13.00;11.30;;;;;;;9.71;48.10;98492.95;107531;1291;22359;-82
2022/04/13 07:58:09;;;;;;;16.30;12.40;;;;;;;9.78;48.50;98491.77;107850;1290;22532;-84
2022/04/13 08:00:36;;;;;;;14.50;13.00;;;;;;;9.88;48.25;98492.95;107852;1291;22267;-83
2022/04/13 08:03:05;;;;;;;13.30;11.00;;;;;;;9.98;48.10;98491.20;107820;1291;23081;-83
2022/04/13 08:05:49;;;;;;;13.50;11.40;;;;;;;10.08;46.89;98493.84;107810;1291;22370;-83
2022/04/13 08:08:17;;;;;;;16.30;11.30;;;;;;;10.11;47.13;98495.91;107938;1290;22240;-83
2022/04/13 08:10:46;;;;;;;12.70;11.50;;;;;;;10.18;47.15;98496.95;107971;1290;23100;-83
2022/04/13 08:13:13;;;;;;;13.00;11.50;;;;;;;10.28;47.60;98492.19;107978;1290;22263;-83
2022/04/13 08:16:01;;;;;;;14.60;11.50;;;;;;;10.44;47.11;98488.35;107731;1290;22285;-83
2022/04/13 08:18:29;;;;;;;15.20;11.50;;;;;;;10.56;47.02;98492.88;107633;1293;22203;-82
2022/04/13 08:20:57;;;;;;;15.40;11.40;;;;;;;10.64;46.35;98493.91;108010;1290;22421;-82
2022/04/13 08:23:25;;;;;;;13.50;11.70;;;;;;;10.72;46.75;98490.99;107977;1290;22371;-82
2022/04/13 08:25:52;;;;;;;13.40;10.80;;;;;;;10.80;46.42;98492.21;107995;1290;22514;-83
2022/04/13 08:28:20;;;;;;;14.20;11.10;;;;;;;10.92;46.49;98487.17;108001;1290;22496;-82
2022/04/13 08:30:48;;;;;;;12.70;10.70;;;;;;;11.04;46.31;98486.51;108001;1289;23171;-82
2022/04/13 08:33:16;;;;;;;14.70;11.80;;;;;;;11.17;46.16;98488.46;108035;1290;22363;-83
2022/04/13 08:35:45;;;;;;;13.30;11.00;;;;;;;11.28;46.08;98489.14;108005;1290;22474;-83
2022/04/13 08:38:13;;;;;;;14.00;11.00;;;;;;;11.38;45.78;98489.06;107991;1290;23389;-83
2022/04/13 08:40:58;;;;;;;13.20;10.60;;;;;;;11.46;45.53;98488.91;107984;1290;22194;-84
2022/04/13 08:43:35;;;;;;;14.50;10.60;;;;;;;11.52;45.66;98486.18;107826;1290;22560;-83
2022/04/13 08:46:07;;;;;;;13.00;10.80;;;;;;;11.62;45.51;98483.03;107977;1290;22417;-83
2022/04/13 08:48:40;;;;;;;12.20;10.70;;;;;;;11.71;45.09;98477.67;107990;1289;23088;-83
2022/04/13 08:51:15;;;;;;;19.50;12.00;;;;;;;11.81;44.81;98479.64;107989;1290;22368;-83
2022/04/13 08:53:44;;;;;;;17.00;13.00;;;;;;;11.94;45.05;98474.57;107989;1290;22439;-83
2022/04/13 08:56:17;;;;;;;17.70;11.60;;;;;;;12.03;44.61;98477.77;107986;1290;23106;-84
2022/04/13 08:59:09;;;;;;;15.10;12.20;;;;;;;12.16;44.70;98478.06;107966;1290;22418;-83
2022/04/13 09:01:56;;;;;;;15.80;10.70;;;;;;;12.28;44.28;98483.59;107966;1290;22473;-83
2022/04/13 09:04:27;;;;;;;17.00;11.80;;;;;;;12.39;44.49;98480.60;107686;1290;22247;-83
2022/04/13 09:06:58;;;;;;;15.50;11.30;;;;;;;12.54;44.44;98482.67;107526;1291;22184;-82
2022/04/13 09:09:40;;;;;;;14.00;10.90;;;;;;;12.65;44.01;98485.83;107817;1291;22309;-82
2022/04/13 09:12:10;;;;;;;12.80;11.40;;;;;;;12.76;44.08;98486.23;107845;1290;22413;-82
2022/04/13 09:14:39;;;;;;;17.10;11.90;;;;;;;12.88;43.87;98489.95;107551;1291;22398;-82
2022/04/13 09:17:08;;;;;;;13.40;11.00;;;;;;;12.96;43.70;98487.69;107818;1291;22330;-83
2022/04/13 09:19:38;;;;;;;17.50;10.50;;;;;;;13.05;43.13;98490.48;107859;1290;22428;-83
2022/04/13 09:22:08;;;;;;;12.20;10.40;;;;;;;13.17;43.34;98488.21;107828;1290;22270;-82
2022/04/13 09:24:37;;;;;;;15.40;12.00;;;;;;;13.27;43.16;98486.73;107842;1290;22372;-82
2022/04/13 09:27:06;;;;;;;13.70;11.30;;;;;;;13.36;43.29;98483.30;107878;1290;22294;-81
2022/04/13 09:29:35;;;;;;;15.20;11.90;;;;;;;13.50;43.05;98479.05;107973;1290;22377;-80
2022/04/13 09:32:03;;;;;;;15.30;11.00;;;;;;;13.60;42.65;98477.11;108186;1291;22431;-81
2022/04/13 09:34:34;;;;;;;13.90;10.90;;;;;;;13.68;42.63;98471.92;108052;1291;22391;-82
2022/04/13 09:37:02;;;;;;;13.80;10.00;;;;;;;13.75;42.56;98468.52;108184;1290;23040;-82
2022/04/13 09:39:30;;;;;;;10.90;9.80;;;;;;;13.87;42.46;98471.48;107904;1291;22261;-82
2022/04/13 09:42:05;;;;;;;11.90;10.10;;;;;;;13.97;42.30;98468.64;107915;1291;22471;-83
2022/04/13 09:44:40;;;;;;;13.10;10.60;;;;;;;14.06;41.89;98466.86;107943;1291;22264;-82
2022/04/13 09:47:10;;;;;;;14.00;9.50;;;;;;;14.18;42.15;98462.64;107902;1291;22356;-82
2022/04/13 09:49:53;;;;;;;13.20;10.40;;;;;;;14.28;41.83;98466.76;107879;1289;23242;-83
2022/04/13 09:52:40;;;;;;;14.70;10.10;;;;;;;14.34;41.41;98465.70;107844;1290;22383;-82
2022/04/13 09:55:08;;;;;;;13.70;10.50;;;;;;;14.46;41.29;98462.69;107871;1291;22420;-82
2022/04/13 09:57:37;;;;;;;17.50;10.60;;;;;;;14.53;41.09;98461.21;107891;1290;22437;-82
2022/04/13 10:00:07;;;;;;;13.90;9.80;;;;;;;14.61;40.99;98464.08;107863;1290;23125;-82
2022/04/13 10:02:44;;;;;;;11.50;9.40;;;;;;;14.73;40.92;98461.42;107603;1291;22413;-82
2022/04/13 10:05:15;;;;;;;12.60;9.50;;;;;;;14.83;39.58;98458.98;107605;1291;23171;-83
2022/04/13 10:07:44;;;;;;;14.50;9.80;;;;;;;14.96;40.18;98458.74;107933;1289;22460;-82
2022/04/13 10:10:24;;;;;;;20.10;10.70;;;;;;;15.13;40.26;98455.64;107968;1290;23192;-83
2022/04/13 10:12:54;;;;;;;14.80;9.40;;;;;;;15.29;40.17;98457.69;107978;1289;23114;-83
2022/04/13 10:15:22;;;;;;;10.30;8.70;;;;;;;15.37;39.89;98455.07;107986;1290;22359;-83
2022/04/13 10:17:57;;;;;;;13.70;9.50;;;;;;;15.45;39.71;98453.32;107991;1290;22292;-83
2022/04/13 10:20:41;;;;;;;12.00;9.20;;;;;;;15.43;39.36;98450.66;107994;1290;23270;-81
2022/04/13 10:23:09;;;;;;;10.20;9.00;;;;;;;15.43;39.03;98451.80;107973;1290;22441;-83
2022/04/13 10:25:38;;;;;;;11.40;9.20;;;;;;;15.51;39.11;98448.77;107964;1290;22477;-82
2022/04/13 10:28:07;;;;;;;11.30;8.20;;;;;;;15.60;39.07;98446.03;107985;1290;23097;-83
2022/04/13 10:30:40;;;;;;;13.90;9.50;;;;;;;15.77;38.81;98443.33;107972;1290;22585;-82
2022/04/13 10:33:13;;;;;;;10.40;8.90;;;;;;;15.95;38.00;98437.59;107673;1290;23123;-83
2022/04/13 10:35:44;;;;;;;11.20;10.00;;;;;;;16.00;37.83;98436.41;107670;1290;22378;-82
2022/04/13 10:38:12;;;;;;;21.60;9.80;;;;;;;16.04;37.51;98439.00;107948;1290;22300;-83
2022/04/13 10:40:42;;;;;;;12.60;9.80;;;;;;;16.14;37.54;98439.30;107991;1290;22377;-82
2022/04/13 10:43:13;;;;;;;14.40;10.40;;;;;;;16.28;37.62;98439.77;107992;1290;22326;-82
2022/04/13 10:45:48;;;;;;;11.70;10.30;;;;;;;16.41;37.56;98436.86;107966;1290;22300;-83
2022/04/13 10:48:31;;;;;;;10.80;9.50;;;;;;;16.55;37.49;98436.25;107645;1290;22351;-82
2022/04/13 10:51:09;;;;;;;13.90;8.80;;;;;;;16.76;37.38;98428.41;107978;1290;22371;-83
2022/04/13 10:54:07;;;;;;;11.80;10.40;;;;;;;16.91;37.14;98427.53;107977;1290;22414;-81
2022/04/13 10:56:40;;;;;;;11.70;10.10;;;;;;;17.06;36.77;98430.33;107933;1290;22300;-81
2022/04/13 10:59:24;;;;;;;15.40;10.30;;;;;;;17.10;36.40;98432.66;107955;1290;23134;-81
2022/04/13 11:02:10;;;;;;;18.50;10.50;;;;;;;17.21;36.37;98428.43;107965;1290;22551;-82
2022/04/13 11:04:39;;;;;;;10.40;8.80;;;;;;;17.39;36.28;98423.83;107996;1290;22503;-84
2022/04/13 11:07:08;;;;;;;12.20;8.60;;;;;;;17.55;35.87;98424.83;107923;1290;22499;-83
2022/04/13 11:09:40;;;;;;;12.40;9.20;;;;;;;17.56;35.39;98427.57;107881;1291;22437;-83
2022/04/13 11:12:09;;;;;;;12.40;8.30;;;;;;;17.54;35.51;98428.38;107874;1290;22429;-83
2022/04/13 11:14:54;;;;;;;13.20;8.80;;;;;;;17.65;35.69;98431.42;107897;1290;23133;-83
2022/04/13 11:17:27;;;;;;;10.40;8.80;;;;;;;17.78;35.60;98428.73;107968;1290;22308;-84
2022/04/13 11:20:19;;;;;;;13.20;8.30;;;;;;;17.89;35.10;98433.38;107577;1291;22907;-82
2022/04/13 11:23:10;;;;;;;10.00;8.50;;;;;;;17.94;34.41;98438.84;107908;1290;22403;-82
2022/04/13 11:25:51;;;;;;;12.90;8.90;;;;;;;17.92;34.00;98433.21;107879;1291;22301;-84
2022/04/13 11:28:28;;;;;;;13.90;9.30;;;;;;;17.94;34.45;98440.94;107591;1291;22494;-83
2022/04/13 11:31:07;;;;;;;11.80;8.80;;;;;;;17.98;33.97;98442.58;107478;1291;22288;-83
2022/04/13 11:33:49;;;;;;;11.10;8.30;;;;;;;18.04;33.68;98441.71;107884;1290;22280;-84